You are not logged in, Click here to log in
機場資訊:RCSS Welcome to Taiwan Airways 台灣虛擬航空
ICAO: RCSS Country: 臺北市松山區敦化北路340-9號
Latitude: 25.0676 Longitude: 121.553
Total Arrivals: 301 Total Departures: 268
Latest Arrival: AE5569 (RCKH-RCSS)Willy. Kuan Latest Departure: FE15592 (RCSS-RCBS)CHUANYI. Lin
Scenery:
METAR : RCSS 170430Z VRB02KT 9999 FEW030 31/19 Q1013 NOSIG RMK A2993

臺北松山機場TSA